sensor_id;sensor_type;location;lat;lon;timestamp;pressure;altitude;pressure_sealevel;temperature;humidity
78841;BME280;68379;47.190;27.558;2023-04-24T00:00:42;99605.06;;;8.92;72.22
78841;BME280;68379;47.190;27.558;2023-04-24T00:03:28;99602.65;;;8.91;72.35
78841;BME280;68379;47.190;27.558;2023-04-24T00:06:00;99603.66;;;8.92;72.03
78841;BME280;68379;47.190;27.558;2023-04-24T00:08:32;99600.10;;;8.93;72.02
78841;BME280;68379;47.190;27.558;2023-04-24T00:11:04;99601.32;;;8.94;71.55
78841;BME280;68379;47.190;27.558;2023-04-24T00:13:36;99599.40;;;8.93;72.08
78841;BME280;68379;47.190;27.558;2023-04-24T00:16:09;99600.00;;;8.91;72.70
78841;BME280;68379;47.190;27.558;2023-04-24T00:18:40;99596.92;;;8.89;72.89
78841;BME280;68379;47.190;27.558;2023-04-24T00:21:13;99594.05;;;8.85;72.43
78841;BME280;68379;47.190;27.558;2023-04-24T00:23:45;99592.83;;;8.80;72.08
78841;BME280;68379;47.190;27.558;2023-04-24T00:26:16;99590.85;;;8.76;72.36
78841;BME280;68379;47.190;27.558;2023-04-24T00:28:48;99589.15;;;8.74;72.88
78841;BME280;68379;47.190;27.558;2023-04-24T00:31:20;99589.43;;;8.72;73.01
78841;BME280;68379;47.190;27.558;2023-04-24T00:33:52;99583.66;;;8.66;72.92
78841;BME280;68379;47.190;27.558;2023-04-24T00:36:24;99586.66;;;8.60;72.79
78841;BME280;68379;47.190;27.558;2023-04-24T00:38:57;99579.09;;;8.55;73.63
78841;BME280;68379;47.190;27.558;2023-04-24T00:41:31;99583.05;;;8.53;73.49
78841;BME280;68379;47.190;27.558;2023-04-24T00:44:03;99579.15;;;8.49;74.14
78841;BME280;68379;47.190;27.558;2023-04-24T00:46:35;99578.27;;;8.44;73.81
78841;BME280;68379;47.190;27.558;2023-04-24T00:49:07;99578.77;;;8.39;74.89
78841;BME280;68379;47.190;27.558;2023-04-24T00:51:39;99582.11;;;8.38;74.10
78841;BME280;68379;47.190;27.558;2023-04-24T00:54:16;99580.01;;;8.38;73.63
78841;BME280;68379;47.190;27.558;2023-04-24T00:56:48;99580.42;;;8.36;74.74
78841;BME280;68379;47.190;27.558;2023-04-24T00:59:21;99581.74;;;8.34;74.90
78841;BME280;68379;47.190;27.558;2023-04-24T01:01:53;99577.12;;;8.31;75.25
78841;BME280;68379;47.190;27.558;2023-04-24T01:04:26;99580.44;;;8.26;75.04
78841;BME280;68379;47.190;27.558;2023-04-24T01:06:58;99578.66;;;8.20;75.52
78841;BME280;68379;47.190;27.558;2023-04-24T01:09:30;99580.03;;;8.16;76.18
78841;BME280;68379;47.190;27.558;2023-04-24T01:12:03;99578.61;;;8.12;76.42
78841;BME280;68379;47.190;27.558;2023-04-24T01:14:35;99573.70;;;8.06;77.03
78841;BME280;68379;47.190;27.558;2023-04-24T01:17:07;99574.21;;;8.01;77.30
78841;BME280;68379;47.190;27.558;2023-04-24T01:19:39;99569.76;;;7.98;77.46
78841;BME280;68379;47.190;27.558;2023-04-24T01:22:12;99568.50;;;7.93;77.75
78841;BME280;68379;47.190;27.558;2023-04-24T01:24:44;99565.96;;;7.90;77.95
78841;BME280;68379;47.190;27.558;2023-04-24T01:27:16;99563.58;;;7.88;77.85
78841;BME280;68379;47.190;27.558;2023-04-24T01:29:48;99564.53;;;7.86;77.70
78841;BME280;68379;47.190;27.558;2023-04-24T01:32:22;99556.38;;;7.82;77.67
78841;BME280;68379;47.190;27.558;2023-04-24T01:34:55;99552.13;;;7.77;76.81
78841;BME280;68379;47.190;27.558;2023-04-24T01:37:27;99554.21;;;7.73;77.85
78841;BME280;68379;47.190;27.558;2023-04-24T01:39:59;99554.98;;;7.71;78.58
78841;BME280;68379;47.190;27.558;2023-04-24T01:42:31;99551.05;;;7.67;79.07
78841;BME280;68379;47.190;27.558;2023-04-24T01:45:04;99548.33;;;7.64;78.76
78841;BME280;68379;47.190;27.558;2023-04-24T01:47:36;99545.93;;;7.62;78.70
78841;BME280;68379;47.190;27.558;2023-04-24T01:50:10;99547.20;;;7.61;78.55
78841;BME280;68379;47.190;27.558;2023-04-24T01:52:42;99543.34;;;7.61;78.32
78841;BME280;68379;47.190;27.558;2023-04-24T01:55:14;99540.57;;;7.60;78.05
78841;BME280;68379;47.190;27.558;2023-04-24T01:57:45;99540.10;;;7.58;78.46
78841;BME280;68379;47.190;27.558;2023-04-24T02:00:18;99536.27;;;7.57;78.57
78841;BME280;68379;47.190;27.558;2023-04-24T02:02:49;99531.90;;;7.56;79.13
78841;BME280;68379;47.190;27.558;2023-04-24T02:05:22;99528.94;;;7.55;79.29
78841;BME280;68379;47.190;27.558;2023-04-24T02:07:53;99526.55;;;7.53;78.61
78841;BME280;68379;47.190;27.558;2023-04-24T02:10:25;99524.53;;;7.50;79.05
78841;BME280;68379;47.190;27.558;2023-04-24T02:12:57;99522.11;;;7.49;79.11
78841;BME280;68379;47.190;27.558;2023-04-24T02:15:29;99521.98;;;7.47;79.29
78841;BME280;68379;47.190;27.558;2023-04-24T02:18:01;99523.77;;;7.46;79.92
78841;BME280;68379;47.190;27.558;2023-04-24T02:20:32;99519.96;;;7.45;79.95
78841;BME280;68379;47.190;27.558;2023-04-24T02:23:05;99516.38;;;7.41;80.25
78841;BME280;68379;47.190;27.558;2023-04-24T02:25:40;99518.05;;;7.39;80.38
78841;BME280;68379;47.190;27.558;2023-04-24T02:28:12;99521.48;;;7.35;80.48
78841;BME280;68379;47.190;27.558;2023-04-24T02:30:43;99523.19;;;7.31;80.90
78841;BME280;68379;47.190;27.558;2023-04-24T02:33:15;99522.73;;;7.29;81.03
78841;BME280;68379;47.190;27.558;2023-04-24T02:35:47;99523.99;;;7.28;81.25
78841;BME280;68379;47.190;27.558;2023-04-24T02:38:19;99522.64;;;7.26;80.94
78841;BME280;68379;47.190;27.558;2023-04-24T02:40:50;99521.13;;;7.24;80.75
78841;BME280;68379;47.190;27.558;2023-04-24T02:43:22;99521.54;;;7.22;81.08
78841;BME280;68379;47.190;27.558;2023-04-24T02:45:54;99520.05;;;7.19;81.50
78841;BME280;68379;47.190;27.558;2023-04-24T02:48:26;99516.26;;;7.17;81.10
78841;BME280;68379;47.190;27.558;2023-04-24T02:50:57;99517.61;;;7.13;81.70
78841;BME280;68379;47.190;27.558;2023-04-24T02:53:30;99519.77;;;7.11;81.76
78841;BME280;68379;47.190;27.558;2023-04-24T02:56:02;99517.58;;;7.08;81.81
78841;BME280;68379;47.190;27.558;2023-04-24T02:58:34;99517.42;;;7.07;82.08
78841;BME280;68379;47.190;27.558;2023-04-24T03:01:05;99514.77;;;7.08;81.75
78841;BME280;68379;47.190;27.558;2023-04-24T03:03:55;99514.05;;;7.08;81.78
78841;BME280;68379;47.190;27.558;2023-04-24T03:06:32;99513.14;;;7.10;81.78
78841;BME280;68379;47.190;27.558;2023-04-24T03:09:05;99517.50;;;7.10;81.58
78841;BME280;68379;47.190;27.558;2023-04-24T03:11:37;99518.55;;;7.11;82.14
78841;BME280;68379;47.190;27.558;2023-04-24T03:14:09;99515.20;;;7.11;81.93
78841;BME280;68379;47.190;27.558;2023-04-24T03:16:42;99517.50;;;7.10;82.31
78841;BME280;68379;47.190;27.558;2023-04-24T03:19:13;99518.54;;;7.11;81.76
78841;BME280;68379;47.190;27.558;2023-04-24T03:21:45;99523.27;;;7.11;81.96
78841;BME280;68379;47.190;27.558;2023-04-24T03:24:17;99525.01;;;7.12;82.08
78841;BME280;68379;47.190;27.558;2023-04-24T03:26:50;99526.55;;;7.13;82.18
78841;BME280;68379;47.190;27.558;2023-04-24T03:29:22;99528.02;;;7.17;82.12
78841;BME280;68379;47.190;27.558;2023-04-24T03:31:54;99529.12;;;7.21;82.17
78841;BME280;68379;47.190;27.558;2023-04-24T03:34:26;99528.91;;;7.22;81.75
78841;BME280;68379;47.190;27.558;2023-04-24T03:36:58;99532.61;;;7.22;81.80
78841;BME280;68379;47.190;27.558;2023-04-24T03:39:30;99526.83;;;7.22;82.13
78841;BME280;68379;47.190;27.558;2023-04-24T03:42:02;99530.80;;;7.24;81.98
78841;BME280;68379;47.190;27.558;2023-04-24T03:44:34;99533.45;;;7.29;81.76
78841;BME280;68379;47.190;27.558;2023-04-24T03:47:06;99531.90;;;7.33;81.52
78841;BME280;68379;47.190;27.558;2023-04-24T03:49:37;99533.50;;;7.39;81.22
78841;BME280;68379;47.190;27.558;2023-04-24T03:52:09;99542.38;;;7.42;81.07
78841;BME280;68379;47.190;27.558;2023-04-24T03:54:41;99543.34;;;7.44;80.98
78841;BME280;68379;47.190;27.558;2023-04-24T03:57:13;99541.73;;;7.45;80.80
78841;BME280;68379;47.190;27.558;2023-04-24T03:59:45;99545.90;;;7.47;80.94
78841;BME280;68379;47.190;27.558;2023-04-24T04:02:17;99549.73;;;7.48;81.14
78841;BME280;68379;47.190;27.558;2023-04-24T04:04:49;99546.89;;;7.49;80.93
78841;BME280;68379;47.190;27.558;2023-04-24T04:07:21;99547.16;;;7.51;80.86
78841;BME280;68379;47.190;27.558;2023-04-24T04:09:54;99547.68;;;7.57;80.46
78841;BME280;68379;47.190;27.558;2023-04-24T04:12:27;99547.45;;;7.65;80.13
78841;BME280;68379;47.190;27.558;2023-04-24T04:14:59;99543.69;;;7.72;79.82
78841;BME280;68379;47.190;27.558;2023-04-24T04:17:33;99541.14;;;7.80;79.88
78841;BME280;68379;47.190;27.558;2023-04-24T04:20:04;99544.88;;;7.90;79.56
78841;BME280;68379;47.190;27.558;2023-04-24T04:22:39;99546.84;;;7.99;79.28
78841;BME280;68379;47.190;27.558;2023-04-24T04:25:12;99547.15;;;8.06;79.17
78841;BME280;68379;47.190;27.558;2023-04-24T04:27:44;99547.90;;;8.14;79.02
78841;BME280;68379;47.190;27.558;2023-04-24T04:30:16;99544.80;;;8.23;78.70
78841;BME280;68379;47.190;27.558;2023-04-24T04:32:48;99546.62;;;8.32;78.60
78841;BME280;68379;47.190;27.558;2023-04-24T04:35:20;99546.67;;;8.41;78.25
78841;BME280;68379;47.190;27.558;2023-04-24T04:37:53;99552.71;;;8.49;78.13
78841;BME280;68379;47.190;27.558;2023-04-24T04:40:26;99550.48;;;8.57;77.84
78841;BME280;68379;47.190;27.558;2023-04-24T04:42:58;99548.96;;;8.65;77.34
78841;BME280;68379;47.190;27.558;2023-04-24T04:45:30;99547.88;;;8.76;77.31
78841;BME280;68379;47.190;27.558;2023-04-24T04:48:04;99548.16;;;8.87;76.85
78841;BME280;68379;47.190;27.558;2023-04-24T04:50:39;99546.81;;;8.95;76.34
78841;BME280;68379;47.190;27.558;2023-04-24T04:53:11;99544.46;;;9.01;75.63
78841;BME280;68379;47.190;27.558;2023-04-24T04:55:44;99544.67;;;9.10;75.94
78841;BME280;68379;47.190;27.558;2023-04-24T04:58:16;99545.54;;;9.19;75.56
78841;BME280;68379;47.190;27.558;2023-04-24T05:00:48;99545.52;;;9.29;75.24
78841;BME280;68379;47.190;27.558;2023-04-24T05:03:20;99544.41;;;9.40;74.93
78841;BME280;68379;47.190;27.558;2023-04-24T05:05:51;99543.86;;;9.49;74.26
78841;BME280;68379;47.190;27.558;2023-04-24T05:08:23;99545.80;;;9.58;73.98
78841;BME280;68379;47.190;27.558;2023-04-24T05:10:55;99552.08;;;9.69;74.33
78841;BME280;68379;47.190;27.558;2023-04-24T05:13:27;99553.08;;;9.83;74.23
78841;BME280;68379;47.190;27.558;2023-04-24T05:15:59;99558.39;;;9.96;72.85
78841;BME280;68379;47.190;27.558;2023-04-24T05:18:30;99554.32;;;10.00;72.34
78841;BME280;68379;47.190;27.558;2023-04-24T05:21:02;99556.42;;;10.05;72.11
78841;BME280;68379;47.190;27.558;2023-04-24T05:23:34;99557.16;;;10.12;72.08
78841;BME280;68379;47.190;27.558;2023-04-24T05:26:06;99559.80;;;10.25;72.29
78841;BME280;68379;47.190;27.558;2023-04-24T05:28:38;99555.33;;;10.43;72.06
78841;BME280;68379;47.190;27.558;2023-04-24T05:31:10;99555.28;;;10.61;71.96
78841;BME280;68379;47.190;27.558;2023-04-24T05:33:42;99558.67;;;10.76;71.24
78841;BME280;68379;47.190;27.558;2023-04-24T05:36:14;99562.19;;;10.88;70.99
78841;BME280;68379;47.190;27.558;2023-04-24T05:38:46;99562.55;;;11.00;70.32
78841;BME280;68379;47.190;27.558;2023-04-24T05:41:18;99560.44;;;11.07;68.81
78841;BME280;68379;47.190;27.558;2023-04-24T05:43:51;99562.95;;;11.06;68.77
78841;BME280;68379;47.190;27.558;2023-04-24T05:46:23;99559.91;;;11.15;69.77
78841;BME280;68379;47.190;27.558;2023-04-24T05:48:55;99556.86;;;11.27;69.16
78841;BME280;68379;47.190;27.558;2023-04-24T05:51:27;99555.59;;;11.39;68.52
78841;BME280;68379;47.190;27.558;2023-04-24T05:53:59;99553.74;;;11.52;68.79
78841;BME280;68379;47.190;27.558;2023-04-24T05:56:33;99553.97;;;11.70;68.27
78841;BME280;68379;47.190;27.558;2023-04-24T05:59:05;99553.95;;;11.88;68.59
78841;BME280;68379;47.190;27.558;2023-04-24T06:01:37;99551.83;;;12.07;67.40
78841;BME280;68379;47.190;27.558;2023-04-24T06:04:09;99551.75;;;12.18;65.90
78841;BME280;68379;47.190;27.558;2023-04-24T06:06:41;99548.99;;;12.27;66.93
78841;BME280;68379;47.190;27.558;2023-04-24T06:09:14;99545.55;;;12.43;67.22
78841;BME280;68379;47.190;27.558;2023-04-24T06:11:47;99543.02;;;12.57;65.91
78841;BME280;68379;47.190;27.558;2023-04-24T06:14:19;99544.59;;;12.65;65.69
78841;BME280;68379;47.190;27.558;2023-04-24T06:16:52;99546.64;;;12.73;65.20
78841;BME280;68379;47.190;27.558;2023-04-24T06:19:24;99544.61;;;12.84;65.16
78841;BME280;68379;47.190;27.558;2023-04-24T06:21:56;99541.92;;;12.95;65.42
78841;BME280;68379;47.190;27.558;2023-04-24T06:24:31;99543.73;;;13.07;64.26
78841;BME280;68379;47.190;27.558;2023-04-24T06:27:03;99543.36;;;13.04;63.10
78841;BME280;68379;47.190;27.558;2023-04-24T06:29:37;99539.98;;;13.01;63.38
78841;BME280;68379;47.190;27.558;2023-04-24T06:32:09;99542.27;;;13.08;63.88
78841;BME280;68379;47.190;27.558;2023-04-24T06:34:41;99543.39;;;13.17;64.41
78841;BME280;68379;47.190;27.558;2023-04-24T06:37:14;99541.61;;;13.20;63.04
78841;BME280;68379;47.190;27.558;2023-04-24T06:39:46;99548.34;;;13.14;63.58
78841;BME280;68379;47.190;27.558;2023-04-24T06:42:18;99544.08;;;13.31;63.73
78841;BME280;68379;47.190;27.558;2023-04-24T06:44:54;99549.23;;;13.50;63.14
78841;BME280;68379;47.190;27.558;2023-04-24T06:47:26;99545.67;;;13.59;62.11
78841;BME280;68379;47.190;27.558;2023-04-24T06:49:58;99548.13;;;13.63;62.66
78841;BME280;68379;47.190;27.558;2023-04-24T06:52:30;99549.23;;;13.78;62.40
78841;BME280;68379;47.190;27.558;2023-04-24T06:55:04;99549.84;;;13.86;61.89
78841;BME280;68379;47.190;27.558;2023-04-24T06:57:36;99548.82;;;14.03;62.92
78841;BME280;68379;47.190;27.558;2023-04-24T07:00:10;99546.98;;;14.23;61.60
78841;BME280;68379;47.190;27.558;2023-04-24T07:02:42;99544.97;;;14.42;61.10
78841;BME280;68379;47.190;27.558;2023-04-24T07:05:14;99542.65;;;14.50;61.04
78841;BME280;68379;47.190;27.558;2023-04-24T07:07:46;99549.45;;;14.62;60.72
78841;BME280;68379;47.190;27.558;2023-04-24T07:10:19;99544.70;;;14.62;60.19
78841;BME280;68379;47.190;27.558;2023-04-24T07:12:52;99545.34;;;14.68;60.72
78841;BME280;68379;47.190;27.558;2023-04-24T07:15:25;99544.55;;;14.90;58.58
78841;BME280;68379;47.190;27.558;2023-04-24T07:17:57;99544.38;;;15.13;55.96
78841;BME280;68379;47.190;27.558;2023-04-24T07:20:29;99541.79;;;15.28;54.39
78841;BME280;68379;47.190;27.558;2023-04-24T07:23:01;99538.05;;;15.43;53.39
78841;BME280;68379;47.190;27.558;2023-04-24T07:25:34;99537.47;;;15.57;52.49
78841;BME280;68379;47.190;27.558;2023-04-24T07:28:06;99538.05;;;15.73;52.17
78841;BME280;68379;47.190;27.558;2023-04-24T07:30:38;99531.73;;;15.87;52.29
78841;BME280;68379;47.190;27.558;2023-04-24T07:33:10;99532.65;;;16.11;51.82
78841;BME280;68379;47.190;27.558;2023-04-24T07:35:43;99536.33;;;16.28;50.16
78841;BME280;68379;47.190;27.558;2023-04-24T07:38:15;99536.08;;;16.34;50.41
78841;BME280;68379;47.190;27.558;2023-04-24T07:40:47;99530.05;;;16.42;48.95
78841;BME280;68379;47.190;27.558;2023-04-24T07:43:19;99532.59;;;16.49;48.96
78841;BME280;68379;47.190;27.558;2023-04-24T07:45:52;99533.71;;;16.61;48.81
78841;BME280;68379;47.190;27.558;2023-04-24T07:48:24;99535.57;;;16.70;47.89
78841;BME280;68379;47.190;27.558;2023-04-24T07:50:57;99528.98;;;16.75;46.82
78841;BME280;68379;47.190;27.558;2023-04-24T07:53:31;99531.27;;;16.84;47.21
78841;BME280;68379;47.190;27.558;2023-04-24T07:56:03;99528.68;;;16.93;46.41
78841;BME280;68379;47.190;27.558;2023-04-24T07:58:36;99526.38;;;16.95;45.78
78841;BME280;68379;47.190;27.558;2023-04-24T08:01:09;99522.52;;;17.05;45.45
78841;BME280;68379;47.190;27.558;2023-04-24T08:03:41;99524.04;;;17.11;45.26
78841;BME280;68379;47.190;27.558;2023-04-24T08:06:13;99526.09;;;17.24;46.39
78841;BME280;68379;47.190;27.558;2023-04-24T08:08:46;99519.14;;;17.36;44.87
78841;BME280;68379;47.190;27.558;2023-04-24T08:11:18;99521.08;;;17.54;44.19
78841;BME280;68379;47.190;27.558;2023-04-24T08:13:50;99521.88;;;17.58;42.67
78841;BME280;68379;47.190;27.558;2023-04-24T08:16:22;99522.40;;;17.56;42.94
78841;BME280;68379;47.190;27.558;2023-04-24T08:18:54;99522.48;;;17.61;42.87
78841;BME280;68379;47.190;27.558;2023-04-24T08:21:26;99520.80;;;17.70;43.43
78841;BME280;68379;47.190;27.558;2023-04-24T08:23:58;99520.97;;;17.77;42.26
78841;BME280;68379;47.190;27.558;2023-04-24T08:26:31;99517.73;;;17.77;41.85
78841;BME280;68379;47.190;27.558;2023-04-24T08:29:04;99517.36;;;17.85;42.15
78841;BME280;68379;47.190;27.558;2023-04-24T08:31:37;99511.39;;;18.01;42.05
78841;BME280;68379;47.190;27.558;2023-04-24T08:34:08;99514.63;;;18.10;41.80
78841;BME280;68379;47.190;27.558;2023-04-24T08:36:40;99511.88;;;18.20;42.06
78841;BME280;68379;47.190;27.558;2023-04-24T08:39:12;99506.10;;;18.28;41.34
78841;BME280;68379;47.190;27.558;2023-04-24T08:41:45;99504.92;;;18.39;41.18
78841;BME280;68379;47.190;27.558;2023-04-24T08:44:19;99507.09;;;18.45;41.04
78841;BME280;68379;47.190;27.558;2023-04-24T08:46:52;99505.65;;;18.43;39.92
78841;BME280;68379;47.190;27.558;2023-04-24T08:49:26;99507.05;;;18.37;40.05
78841;BME280;68379;47.190;27.558;2023-04-24T08:51:58;99508.25;;;18.49;39.83
78841;BME280;68379;47.190;27.558;2023-04-24T08:54:33;99507.95;;;18.59;39.78
78841;BME280;68379;47.190;27.558;2023-04-24T08:57:09;99502.55;;;18.72;39.91
78841;BME280;68379;47.190;27.558;2023-04-24T08:59:42;99501.17;;;18.68;39.32
78841;BME280;68379;47.190;27.558;2023-04-24T09:02:15;99494.99;;;18.81;38.61
78841;BME280;68379;47.190;27.558;2023-04-24T09:04:49;99500.27;;;18.78;37.47
78841;BME280;68379;47.190;27.558;2023-04-24T09:07:23;99495.41;;;18.66;36.69
78841;BME280;68379;47.190;27.558;2023-04-24T09:09:57;99486.86;;;18.66;37.27
78841;BME280;68379;47.190;27.558;2023-04-24T09:12:28;99490.38;;;18.74;37.43
78841;BME280;68379;47.190;27.558;2023-04-24T09:15:02;99488.98;;;18.69;37.68
78841;BME280;68379;47.190;27.558;2023-04-24T09:17:34;99486.27;;;18.76;37.62
78841;BME280;68379;47.190;27.558;2023-04-24T09:20:09;99484.85;;;18.76;37.42
78841;BME280;68379;47.190;27.558;2023-04-24T09:22:40;99481.02;;;18.90;37.94
78841;BME280;68379;47.190;27.558;2023-04-24T09:25:13;99478.61;;;18.98;37.56
78841;BME280;68379;47.190;27.558;2023-04-24T09:27:46;99477.24;;;19.17;37.88
78841;BME280;68379;47.190;27.558;2023-04-24T09:30:23;99476.49;;;19.29;36.24
78841;BME280;68379;47.190;27.558;2023-04-24T09:33:12;99468.83;;;19.31;36.39
78841;BME280;68379;47.190;27.558;2023-04-24T09:35:50;99469.27;;;19.36;35.87
78841;BME280;68379;47.190;27.558;2023-04-24T09:38:32;99458.81;;;19.41;35.28
78841;BME280;68379;47.190;27.558;2023-04-24T09:41:07;99451.44;;;19.40;35.90
78841;BME280;68379;47.190;27.558;2023-04-24T09:43:39;99456.67;;;19.48;36.79
78841;BME280;68379;47.190;27.558;2023-04-24T09:46:11;99460.97;;;19.79;36.28
78841;BME280;68379;47.190;27.558;2023-04-24T09:48:43;99461.09;;;19.97;35.06
78841;BME280;68379;47.190;27.558;2023-04-24T09:51:16;99457.65;;;19.92;34.20
78841;BME280;68379;47.190;27.558;2023-04-24T09:53:54;99446.19;;;19.95;35.06
78841;BME280;68379;47.190;27.558;2023-04-24T09:56:26;99448.48;;;19.88;34.90
78841;BME280;68379;47.190;27.558;2023-04-24T09:59:06;99442.23;;;19.64;35.79
78841;BME280;68379;47.190;27.558;2023-04-24T10:01:39;99445.79;;;20.07;36.14
78841;BME280;68379;47.190;27.558;2023-04-24T10:04:21;99445.05;;;20.41;35.11
78841;BME280;68379;47.190;27.558;2023-04-24T10:06:56;99437.41;;;20.45;34.47
78841;BME280;68379;47.190;27.558;2023-04-24T10:09:28;99430.16;;;20.25;34.39
78841;BME280;68379;47.190;27.558;2023-04-24T10:12:01;99433.19;;;20.21;34.82
78841;BME280;68379;47.190;27.558;2023-04-24T10:14:33;99430.54;;;20.05;35.47
78841;BME280;68379;47.190;27.558;2023-04-24T10:17:12;99428.92;;;19.97;35.76
78841;BME280;68379;47.190;27.558;2023-04-24T10:19:47;99419.14;;;20.15;35.17
78841;BME280;68379;47.190;27.558;2023-04-24T10:22:19;99426.79;;;20.20;35.26
78841;BME280;68379;47.190;27.558;2023-04-24T10:24:53;99414.92;;;20.45;34.40
78841;BME280;68379;47.190;27.558;2023-04-24T10:27:28;99418.60;;;20.61;34.30
78841;BME280;68379;47.190;27.558;2023-04-24T10:30:03;99412.13;;;20.51;34.77
78841;BME280;68379;47.190;27.558;2023-04-24T10:32:35;99411.67;;;20.49;34.66
78841;BME280;68379;47.190;27.558;2023-04-24T10:35:08;99411.88;;;20.53;33.98
78841;BME280;68379;47.190;27.558;2023-04-24T10:37:43;99416.91;;;20.76;33.49
78841;BME280;68379;47.190;27.558;2023-04-24T10:40:19;99409.36;;;20.76;33.10
78841;BME280;68379;47.190;27.558;2023-04-24T10:42:58;99409.40;;;20.70;33.78
78841;BME280;68379;47.190;27.558;2023-04-24T10:45:31;99403.80;;;20.92;33.40
78841;BME280;68379;47.190;27.558;2023-04-24T10:48:04;99401.12;;;21.06;32.53
78841;BME280;68379;47.190;27.558;2023-04-24T10:50:44;99399.69;;;21.02;32.55
78841;BME280;68379;47.190;27.558;2023-04-24T10:53:17;99397.41;;;20.85;32.87
78841;BME280;68379;47.190;27.558;2023-04-24T10:55:49;99397.70;;;20.90;33.33
78841;BME280;68379;47.190;27.558;2023-04-24T10:58:35;99394.81;;;20.89;32.79
78841;BME280;68379;47.190;27.558;2023-04-24T11:01:09;99394.38;;;20.77;32.18
78841;BME280;68379;47.190;27.558;2023-04-24T11:03:54;99389.77;;;20.70;31.98
78841;BME280;68379;47.190;27.558;2023-04-24T11:06:33;99393.48;;;20.53;32.61
78841;BME280;68379;47.190;27.558;2023-04-24T11:09:07;99399.10;;;20.50;32.57
78841;BME280;68379;47.190;27.558;2023-04-24T11:11:46;99391.31;;;20.87;32.93
78841;BME280;68379;47.190;27.558;2023-04-24T11:14:18;99391.25;;;21.10;31.39
78841;BME280;68379;47.190;27.558;2023-04-24T11:16:55;99391.95;;;21.18;30.99
78841;BME280;68379;47.190;27.558;2023-04-24T11:19:27;99389.30;;;21.28;30.97
78841;BME280;68379;47.190;27.558;2023-04-24T11:22:02;99392.27;;;21.08;30.79
78841;BME280;68379;47.190;27.558;2023-04-24T11:24:48;99382.43;;;20.84;31.17
78841;BME280;68379;47.190;27.558;2023-04-24T11:27:23;99383.59;;;20.71;31.49
78841;BME280;68379;47.190;27.558;2023-04-24T11:30:03;99383.46;;;20.69;31.22
78841;BME280;68379;47.190;27.558;2023-04-24T11:32:39;99381.14;;;20.54;31.56
78841;BME280;68379;47.190;27.558;2023-04-24T11:35:18;99377.04;;;20.37;31.77
78841;BME280;68379;47.190;27.558;2023-04-24T11:37:52;99371.46;;;20.27;32.12
78841;BME280;68379;47.190;27.558;2023-04-24T11:40:25;99380.70;;;20.69;31.32
78841;BME280;68379;47.190;27.558;2023-04-24T11:42:59;99376.26;;;21.21;30.64
78841;BME280;68379;47.190;27.558;2023-04-24T11:45:32;99378.98;;;21.48;29.74
78841;BME280;68379;47.190;27.558;2023-04-24T11:48:05;99372.88;;;21.78;29.08
78841;BME280;68379;47.190;27.558;2023-04-24T11:50:38;99372.18;;;22.04;28.63
78841;BME280;68379;47.190;27.558;2023-04-24T11:53:10;99367.69;;;22.32;28.70
78841;BME280;68379;47.190;27.558;2023-04-24T11:55:41;99365.71;;;22.66;27.79
78841;BME280;68379;47.190;27.558;2023-04-24T11:58:14;99364.73;;;22.22;28.03
78841;BME280;68379;47.190;27.558;2023-04-24T12:00:53;99370.34;;;22.03;28.59
78841;BME280;68379;47.190;27.558;2023-04-24T12:03:29;99357.02;;;21.65;28.63
78841;BME280;68379;47.190;27.558;2023-04-24T12:06:11;99354.52;;;21.64;29.16
78841;BME280;68379;47.190;27.558;2023-04-24T12:08:48;99353.67;;;22.05;28.65
78841;BME280;68379;47.190;27.558;2023-04-24T12:11:20;99355.79;;;22.35;27.79
78841;BME280;68379;47.190;27.558;2023-04-24T12:13:52;99349.59;;;22.37;26.83
78841;BME280;68379;47.190;27.558;2023-04-24T12:16:26;99345.46;;;22.58;26.73
78841;BME280;68379;47.190;27.558;2023-04-24T12:18:59;99337.61;;;22.51;26.17
78841;BME280;68379;47.190;27.558;2023-04-24T12:21:29;99338.19;;;22.84;26.47
78841;BME280;68379;47.190;27.558;2023-04-24T12:24:05;99334.20;;;22.92;26.33
78841;BME280;68379;47.190;27.558;2023-04-24T12:26:41;99331.20;;;22.82;26.04
78841;BME280;68379;47.190;27.558;2023-04-24T12:29:22;99323.06;;;23.04;25.95
78841;BME280;68379;47.190;27.558;2023-04-24T12:31:54;99323.95;;;23.19;25.73
78841;BME280;68379;47.190;27.558;2023-04-24T12:34:27;99322.19;;;23.13;25.38
78841;BME280;68379;47.190;27.558;2023-04-24T12:37:12;99315.75;;;22.87;24.89
78841;BME280;68379;47.190;27.558;2023-04-24T12:39:46;99313.11;;;22.46;25.68
78841;BME280;68379;47.190;27.558;2023-04-24T12:42:31;99301.90;;;22.37;26.00
78841;BME280;68379;47.190;27.558;2023-04-24T12:45:06;99299.05;;;22.42;25.92
78841;BME280;68379;47.190;27.558;2023-04-24T12:47:44;99299.70;;;22.62;25.94
78841;BME280;68379;47.190;27.558;2023-04-24T12:50:17;99291.64;;;22.77;25.08
78841;BME280;68379;47.190;27.558;2023-04-24T12:52:51;99297.55;;;22.87;25.02
78841;BME280;68379;47.190;27.558;2023-04-24T12:55:27;99292.23;;;23.21;24.76
78841;BME280;68379;47.190;27.558;2023-04-24T12:57:59;99290.27;;;23.72;24.38
78841;BME280;68379;47.190;27.558;2023-04-24T13:00:34;99282.33;;;23.85;23.63
78841;BME280;68379;47.190;27.558;2023-04-24T13:03:08;99279.60;;;23.81;23.43
78841;BME280;68379;47.190;27.558;2023-04-24T13:05:40;99279.82;;;24.14;23.23
78841;BME280;68379;47.190;27.558;2023-04-24T13:08:12;99284.30;;;24.57;22.56
78841;BME280;68379;47.190;27.558;2023-04-24T13:10:44;99276.59;;;24.63;22.55
78841;BME280;68379;47.190;27.558;2023-04-24T13:13:16;99275.50;;;24.82;22.27
78841;BME280;68379;47.190;27.558;2023-04-24T13:15:49;99272.55;;;24.94;21.92
78841;BME280;68379;47.190;27.558;2023-04-24T13:18:21;99270.80;;;25.02;21.36
78841;BME280;68379;47.190;27.558;2023-04-24T13:20:55;99271.86;;;24.97;21.78
78841;BME280;68379;47.190;27.558;2023-04-24T13:23:33;99268.66;;;25.20;21.64
78841;BME280;68379;47.190;27.558;2023-04-24T13:26:06;99258.23;;;24.88;21.70